Time;durP1;ratioP1;P1;durP2;ratioP2;P2;SDS_P1;SDS_P2;PMS_P1;PMS_P2;Temp;Humidity;BMP_temperature;BMP_pressure;BME280_temperature;BME280_humidity;BME280_pressure;Samples;Min_cycle;Max_cycle;Signal;HPM_P1;HPM_P2
2023/03/16 00:01:35;;;;;;;;;;;;;;;3.81;100.00;101749.06;5019139;28;20347;-77
2023/03/16 00:04:01;;;;;;;;;;;;;;;3.79;100.00;101762.41;5008874;28;20616;-77
2023/03/16 00:06:26;;;;;;;;;;;;;;;3.80;100.00;101758.84;5000126;28;20470;-77
2023/03/16 00:08:51;;;;;;;;;;;;;;;3.78;100.00;101743.84;5015410;28;19925;-79
2023/03/16 00:11:16;;;;;;;;;;;;;;;3.97;100.00;101749.41;4996229;28;19932;-77
2023/03/16 00:13:41;;;;;;;;;;;;;;;4.02;98.11;101750.97;4989994;28;20363;-76
2023/03/16 00:16:07;;;;;;;;;;;;;;;3.87;100.00;101740.88;4998910;28;20405;-77
2023/03/16 00:18:37;;;;;;;;;;;;;;;3.82;100.00;101759.66;4982946;28;20357;-77
2023/03/16 00:21:04;;;;;;;;;;;;;;;3.71;100.00;101765.31;5015764;28;20379;-80
2023/03/16 00:23:34;;;;;;;;;;;;;;;3.84;100.00;101757.78;5010769;28;19932;-77
2023/03/16 00:26:01;;;;;;;;;;;;;;;3.90;100.00;101762.88;4998074;28;20746;-77
2023/03/16 00:28:27;;;;;;;;;;;;;;;4.13;98.90;101766.50;5014657;28;19968;-78
2023/03/16 00:30:57;;;;;;;;;;;;;;;3.85;100.00;101759.53;4995437;28;21567;-77
2023/03/16 00:33:22;;;;;;;;;;;;;;;3.94;100.00;101750.38;5011755;28;20012;-77
2023/03/16 00:35:48;;;;;;;;;;;;;;;3.85;100.00;101740.91;4993295;28;19921;-78
2023/03/16 00:38:13;;;;;;;;;;;;;;;3.62;100.00;101733.78;5016323;28;20276;-77
2023/03/16 00:40:39;;;;;;;;;;;;;;;3.77;100.00;101737.69;5011008;28;19943;-77
2023/03/16 00:43:04;;;;;;;;;;;;;;;3.65;100.00;101741.63;4997940;28;19921;-78
2023/03/16 00:45:29;;;;;;;;;;;;;;;3.92;100.00;101728.31;5015456;28;20026;-77
2023/03/16 00:47:54;;;;;;;;;;;;;;;3.59;100.00;101723.25;5013818;28;20031;-78
2023/03/16 00:50:21;;;;;;;;;;;;;;;3.72;100.00;101729.00;5013509;28;19922;-78
2023/03/16 00:52:46;;;;;;;;;;;;;;;3.84;100.00;101730.38;5015188;28;19943;-78
2023/03/16 00:55:12;;;;;;;;;;;;;;;3.56;100.00;101718.91;4988653;28;20451;-78
2023/03/16 00:57:37;;;;;;;;;;;;;;;3.78;100.00;101714.63;5018501;28;20028;-78
2023/03/16 01:00:11;;;;;;;;;;;;;;;3.68;100.00;101709.66;4997550;28;19921;-78
2023/03/16 01:02:36;;;;;;;;;;;;;;;3.79;100.00;101709.28;5017343;28;20055;-78
2023/03/16 01:05:04;;;;;;;;;;;;;;;3.69;100.00;101703.44;5018268;28;19920;-78
2023/03/16 01:07:30;;;;;;;;;;;;;;;3.86;100.00;101701.94;5019165;28;19922;-78
2023/03/16 01:09:55;;;;;;;;;;;;;;;3.80;100.00;101704.81;5015617;28;20314;-77
2023/03/16 01:12:20;;;;;;;;;;;;;;;3.75;100.00;101697.03;5000074;28;20012;-77
2023/03/16 01:14:45;;;;;;;;;;;;;;;3.74;100.00;101693.47;5017523;28;19928;-78
2023/03/16 01:17:12;;;;;;;;;;;;;;;3.62;100.00;101682.44;5020527;28;19948;-77
2023/03/16 01:19:38;;;;;;;;;;;;;;;3.66;100.00;101686.72;5018515;28;19964;-78
2023/03/16 01:22:04;;;;;;;;;;;;;;;3.67;100.00;101689.34;5019097;28;19921;-78
2023/03/16 01:24:29;;;;;;;;;;;;;;;3.57;100.00;101682.59;5021437;28;19922;-78
2023/03/16 01:26:54;;;;;;;;;;;;;;;3.69;100.00;101675.97;5015805;28;19928;-78
2023/03/16 01:29:20;;;;;;;;;;;;;;;3.54;100.00;101642.88;5016174;28;19936;-78
2023/03/16 01:31:46;;;;;;;;;;;;;;;3.59;100.00;101670.13;4985885;28;19928;-78
2023/03/16 01:34:17;;;;;;;;;;;;;;;3.89;100.00;101668.16;5016093;28;19925;-78
2023/03/16 01:36:43;;;;;;;;;;;;;;;3.65;100.00;101672.59;4998589;28;19932;-77
2023/03/16 01:39:09;;;;;;;;;;;;;;;3.54;100.00;101672.06;4999165;28;19929;-77
2023/03/16 01:41:34;;;;;;;;;;;;;;;3.44;100.00;101650.28;5016117;28;19921;-77
2023/03/16 01:43:59;;;;;;;;;;;;;;;3.55;100.00;101666.72;4996360;28;20268;-78
2023/03/16 01:46:26;;;;;;;;;;;;;;;3.49;100.00;101661.63;4985860;28;19925;-77
2023/03/16 01:48:57;;;;;;;;;;;;;;;3.36;100.00;101666.50;5017290;28;19921;-78
2023/03/16 01:51:31;;;;;;;;;;;;;;;3.71;100.00;101656.41;5020365;28;20379;-77
2023/03/16 01:53:57;;;;;;;;;;;;;;;3.75;100.00;101650.06;5011028;28;20359;-77
2023/03/16 01:56:26;;;;;;;;;;;;;;;3.50;100.00;101650.09;4997568;28;19925;-78
2023/03/16 01:58:52;;;;;;;;;;;;;;;3.59;100.00;101651.53;5016410;28;19924;-77
2023/03/16 02:01:17;;;;;;;;;;;;;;;3.58;100.00;101647.16;5009154;28;19925;-78
2023/03/16 02:03:43;;;;;;;;;;;;;;;3.34;100.00;101646.22;5004731;28;19983;-78
2023/03/16 02:06:10;;;;;;;;;;;;;;;3.41;100.00;101642.44;4991368;28;19917;-77
2023/03/16 02:08:35;;;;;;;;;;;;;;;3.48;100.00;101645.72;4997869;28;19929;-78
2023/03/16 02:11:00;;;;;;;;;;;;;;;3.44;100.00;101647.63;4993327;28;19942;-78
2023/03/16 02:13:25;;;;;;;;;;;;;;;3.53;100.00;101635.81;4998235;28;20023;-77
2023/03/16 02:15:52;;;;;;;;;;;;;;;3.55;100.00;101628.66;5005114;28;19924;-77
2023/03/16 02:18:17;;;;;;;;;;;;;;;3.68;100.00;101629.97;4986375;28;19926;-78
2023/03/16 02:20:48;;;;;;;;;;;;;;;3.69;100.00;101629.06;4999963;28;19932;-77
2023/03/16 02:23:17;;;;;;;;;;;;;;;3.56;100.00;101618.00;5018197;28;19944;-78
2023/03/16 02:25:47;;;;;;;;;;;;;;;3.54;100.00;101619.84;4994731;28;19921;-77
2023/03/16 02:28:18;;;;;;;;;;;;;;;3.45;100.00;101626.34;4995789;28;20056;-78
2023/03/16 02:30:44;;;;;;;;;;;;;;;3.63;100.00;101620.41;4999222;28;19921;-78
2023/03/16 02:33:10;;;;;;;;;;;;;;;3.69;100.00;101614.91;4987877;28;19970;-78
2023/03/16 02:35:35;;;;;;;;;;;;;;;3.71;100.00;101610.41;5003033;28;20639;-78
2023/03/16 02:38:00;;;;;;;;;;;;;;;3.66;100.00;101620.31;4999523;28;19932;-77
2023/03/16 02:40:26;;;;;;;;;;;;;;;3.82;100.00;101613.53;4995216;28;19932;-77
2023/03/16 02:42:55;;;;;;;;;;;;;;;3.84;100.00;101611.66;5001472;28;19921;-78
2023/03/16 02:45:21;;;;;;;;;;;;;;;3.64;100.00;101608.88;4997887;28;20295;-78
2023/03/16 02:47:47;;;;;;;;;;;;;;;3.66;100.00;101607.03;5001600;28;19929;-78
2023/03/16 02:50:12;;;;;;;;;;;;;;;3.74;100.00;101611.13;4984095;28;19920;-77
2023/03/16 02:52:37;;;;;;;;;;;;;;;3.53;100.00;101617.22;5007799;28;19932;-78
2023/03/16 02:55:03;;;;;;;;;;;;;;;3.44;100.00;101621.94;4984185;28;19965;-77
2023/03/16 02:57:29;;;;;;;;;;;;;;;3.77;100.00;101618.16;4998612;28;20391;-77
2023/03/16 02:59:54;;;;;;;;;;;;;;;3.73;100.00;101609.41;5001977;28;19921;-78
2023/03/16 03:02:19;;;;;;;;;;;;;;;3.61;100.00;101612.53;5016819;28;20379;-77
2023/03/16 03:04:47;;;;;;;;;;;;;;;3.68;100.00;101608.72;4982458;28;19921;-78
2023/03/16 03:07:13;;;;;;;;;;;;;;;3.64;100.00;101619.50;5000200;28;19925;-78
2023/03/16 03:09:41;;;;;;;;;;;;;;;3.54;100.00;101618.97;4980694;28;20569;-78
2023/03/16 03:12:07;;;;;;;;;;;;;;;3.66;100.00;101612.34;4992122;28;19960;-79
2023/03/16 03:14:37;;;;;;;;;;;;;;;3.44;100.00;101619.28;4992589;28;19917;-78
2023/03/16 03:17:03;;;;;;;;;;;;;;;3.44;100.00;101607.81;4986505;28;19932;-78
2023/03/16 03:19:28;;;;;;;;;;;;;;;3.43;100.00;101614.94;4997236;28;19921;-78
2023/03/16 03:21:55;;;;;;;;;;;;;;;3.23;100.00;101610.31;4988980;28;20016;-77
2023/03/16 03:24:21;;;;;;;;;;;;;;;3.44;100.00;101608.66;4999279;28;19921;-77
2023/03/16 03:26:46;;;;;;;;;;;;;;;3.27;100.00;101603.97;5016893;28;19966;-78
2023/03/16 03:29:11;;;;;;;;;;;;;;;3.55;100.00;101599.47;4996768;28;19964;-77
2023/03/16 03:31:36;;;;;;;;;;;;;;;3.37;100.00;101603.63;4997029;28;19925;-78
2023/03/16 03:34:05;;;;;;;;;;;;;;;3.25;100.00;101602.28;4984556;28;19928;-78
2023/03/16 03:36:30;;;;;;;;;;;;;;;3.22;100.00;101594.41;4980617;28;19929;-78
2023/03/16 03:38:55;;;;;;;;;;;;;;;3.27;100.00;101588.06;4998675;28;20394;-78
2023/03/16 03:41:21;;;;;;;;;;;;;;;3.35;100.00;101581.59;4995495;28;20426;-77
2023/03/16 03:43:46;;;;;;;;;;;;;;;3.28;100.00;101584.47;4997984;28;20323;-78
2023/03/16 03:46:11;;;;;;;;;;;;;;;3.15;100.00;101593.78;4992985;28;19921;-77
2023/03/16 03:48:36;;;;;;;;;;;;;;;3.18;100.00;101580.41;4996917;28;19925;-77
2023/03/16 03:51:02;;;;;;;;;;;;;;;3.19;100.00;101581.25;4986552;28;19961;-77
2023/03/16 03:53:27;;;;;;;;;;;;;;;3.09;100.00;101575.41;4995802;28;19994;-77
2023/03/16 03:55:52;;;;;;;;;;;;;;;3.04;100.00;101572.06;4999684;28;19921;-78
2023/03/16 03:58:18;;;;;;;;;;;;;;;3.15;100.00;101564.59;5000201;28;20323;-77
2023/03/16 04:00:43;;;;;;;;;;;;;;;3.15;100.00;101564.59;4997332;28;19960;-77
2023/03/16 04:03:08;;;;;;;;;;;;;;;3.17;100.00;101559.25;5002998;28;20011;-77
2023/03/16 04:05:34;;;;;;;;;;;;;;;3.17;100.00;101557.44;5015979;28;21645;-78
2023/03/16 04:07:59;;;;;;;;;;;;;;;3.29;100.00;101562.31;4997237;28;20689;-78
2023/03/16 04:10:27;;;;;;;;;;;;;;;3.09;100.00;101565.69;4981203;28;20036;-78
2023/03/16 04:12:54;;;;;;;;;;;;;;;3.25;100.00;101560.69;5004580;28;19959;-77
2023/03/16 04:15:21;;;;;;;;;;;;;;;3.27;100.00;101566.81;4984970;28;19922;-78
2023/03/16 04:17:46;;;;;;;;;;;;;;;3.35;100.00;101563.88;4983293;28;19945;-78
2023/03/16 04:20:17;;;;;;;;;;;;;;;3.17;100.00;101572.50;4995341;28;19929;-78
2023/03/16 04:22:43;;;;;;;;;;;;;;;3.09;100.00;101570.09;4989766;28;19921;-78
2023/03/16 04:25:09;;;;;;;;;;;;;;;3.29;100.00;101562.31;4986258;28;19943;-78
2023/03/16 04:27:35;;;;;;;;;;;;;;;3.28;100.00;101559.72;4986194;28;19922;-77
2023/03/16 04:30:01;;;;;;;;;;;;;;;3.28;100.00;101559.72;4998052;28;19983;-77
2023/03/16 04:32:27;;;;;;;;;;;;;;;3.18;100.00;101558.31;4986580;28;20315;-78
2023/03/16 04:34:54;;;;;;;;;;;;;;;3.27;100.00;101560.63;5002858;28;19921;-78
2023/03/16 04:37:21;;;;;;;;;;;;;;;3.30;100.00;101553.44;4988190;28;19940;-78
2023/03/16 04:39:46;;;;;;;;;;;;;;;3.17;100.00;101561.91;5000652;28;20171;-78
2023/03/16 04:42:11;;;;;;;;;;;;;;;3.21;100.00;101563.50;5000053;28;19921;-78
2023/03/16 04:44:43;;;;;;;;;;;;;;;3.34;100.00;101566.56;4979653;28;19921;-78
2023/03/16 04:47:08;;;;;;;;;;;;;;;3.28;100.00;101562.38;5001405;28;19925;-77
2023/03/16 04:49:33;;;;;;;;;;;;;;;3.28;100.00;101551.75;4993170;28;20381;-77
2023/03/16 04:51:59;;;;;;;;;;;;;;;3.27;100.00;101552.66;4987540;28;19921;-78
2023/03/16 04:54:25;;;;;;;;;;;;;;;3.36;100.00;101543.50;4988825;28;19972;-78
2023/03/16 04:56:51;;;;;;;;;;;;;;;3.51;100.00;101534.09;5001931;28;20066;-78
2023/03/16 04:59:16;;;;;;;;;;;;;;;3.68;100.00;101534.38;4989144;28;20334;-78
2023/03/16 05:01:42;;;;;;;;;;;;;;;3.34;100.00;101530.31;5000792;28;19917;-80
2023/03/16 05:04:07;;;;;;;;;;;;;;;3.42;100.00;101528.25;4988054;28;19982;-78
2023/03/16 05:06:32;;;;;;;;;;;;;;;3.57;100.00;101526.81;5008401;28;20340;-78
2023/03/16 05:08:58;;;;;;;;;;;;;;;3.44;100.00;101541.44;5038540;22;20393;-78
2023/03/16 05:11:24;;;;;;;;;;;;;;;3.41;100.00;101539.78;5026883;28;19932;-78
2023/03/16 05:13:49;;;;;;;;;;;;;;;3.51;100.00;101542.97;5039828;28;20046;-78
2023/03/16 05:16:14;;;;;;;;;;;;;;;3.49;100.00;101530.63;5018474;28;19941;-77
2023/03/16 05:18:40;;;;;;;;;;;;;;;3.51;100.00;101535.00;5034806;28;19983;-77
2023/03/16 05:21:06;;;;;;;;;;;;;;;3.48;100.00;101524.47;5038899;28;20040;-78
2023/03/16 05:23:31;;;;;;;;;;;;;;;3.36;100.00;101532.88;5023973;28;19963;-78
2023/03/16 05:25:59;;;;;;;;;;;;;;;3.44;100.00;101529.03;5019362;28;19925;-78
2023/03/16 05:28:25;;;;;;;;;;;;;;;3.46;100.00;101521.00;5021397;28;19977;-78
2023/03/16 05:30:50;;;;;;;;;;;;;;;3.34;100.00;101530.31;5018304;28;19924;-78
2023/03/16 05:33:15;;;;;;;;;;;;;;;3.56;100.00;101526.84;5037471;28;20689;-77
2023/03/16 05:35:41;;;;;;;;;;;;;;;3.39;100.00;101522.16;5032511;28;19925;-78
2023/03/16 05:38:08;;;;;;;;;;;;;;;3.40;100.00;101529.19;5038839;28;19924;-78
2023/03/16 05:40:34;;;;;;;;;;;;;;;3.63;100.00;101530.13;5020241;28;19920;-78
2023/03/16 05:42:59;;;;;;;;;;;;;;;3.43;100.00;101529.09;5039075;28;20255;-79
2023/03/16 05:45:24;;;;;;;;;;;;;;;3.53;100.00;101525.19;5022592;28;19924;-78
2023/03/16 05:47:49;;;;;;;;;;;;;;;3.68;100.00;101528.16;5022322;28;19955;-78
2023/03/16 05:50:15;;;;;;;;;;;;;;;3.52;100.00;101526.09;5035651;28;20056;-78
2023/03/16 05:52:41;;;;;;;;;;;;;;;3.48;100.00;101528.91;5001528;28;20257;-78
2023/03/16 05:55:06;;;;;;;;;;;;;;;3.48;100.00;101523.59;5008961;28;19921;-78
2023/03/16 05:57:32;;;;;;;;;;;;;;;3.54;100.00;101531.34;5025665;28;19921;-77
2023/03/16 05:59:58;;;;;;;;;;;;;;;3.58;100.00;101527.66;5024058;28;20375;-78
2023/03/16 06:02:23;;;;;;;;;;;;;;;3.46;100.00;101523.66;5036215;28;19927;-78
2023/03/16 06:04:48;;;;;;;;;;;;;;;3.63;100.00;101522.16;5022483;28;20148;-78
2023/03/16 06:07:13;;;;;;;;;;;;;;;3.51;100.00;101519.06;5023496;28;19921;-77
2023/03/16 06:09:39;;;;;;;;;;;;;;;3.67;100.00;101522.00;5039635;28;20353;-77
2023/03/16 06:12:04;;;;;;;;;;;;;;;3.80;100.00;101516.22;5024795;28;20349;-78
2023/03/16 06:14:29;;;;;;;;;;;;;;;3.51;100.00;101519.06;5024363;28;19924;-77
2023/03/16 06:16:54;;;;;;;;;;;;;;;3.64;100.00;101521.25;5026888;28;19932;-79
2023/03/16 06:19:20;;;;;;;;;;;;;;;3.67;100.00;101511.38;5024187;28;19917;-78
2023/03/16 06:21:45;;;;;;;;;;;;;;;3.74;100.00;101509.34;5029929;28;19920;-78
2023/03/16 06:24:10;;;;;;;;;;;;;;;3.73;100.00;101502.31;5025227;28;19921;-77
2023/03/16 06:26:36;;;;;;;;;;;;;;;3.68;100.00;101510.47;5019934;28;19920;-78
2023/03/16 06:29:01;;;;;;;;;;;;;;;3.71;100.00;101520.09;5020288;28;19932;-78
2023/03/16 06:31:26;;;;;;;;;;;;;;;3.62;100.00;101512.47;5041424;28;19920;-77
2023/03/16 06:33:51;;;;;;;;;;;;;;;3.65;100.00;101510.56;5026234;28;19931;-77
2023/03/16 06:36:17;;;;;;;;;;;;;;;3.68;100.00;101512.25;5025153;28;19928;-78
2023/03/16 06:38:44;;;;;;;;;;;;;;;3.64;100.00;101516.81;5022898;28;21561;-77
2023/03/16 06:41:09;;;;;;;;;;;;;;;3.66;100.00;101512.31;5038969;28;19924;-77
2023/03/16 06:43:34;;;;;;;;;;;;;;;3.79;100.00;101509.16;5023763;28;20399;-76
2023/03/16 06:46:00;;;;;;;;;;;;;;;3.77;100.00;101511.91;5032533;28;20410;-78
2023/03/16 06:48:25;;;;;;;;;;;;;;;4.02;100.00;101503.81;5021888;28;20492;-78
2023/03/16 06:50:50;;;;;;;;;;;;;;;4.01;100.00;101506.53;5023371;28;19921;-78
2023/03/16 06:53:16;;;;;;;;;;;;;;;3.80;100.00;101508.25;5019221;28;19986;-77
2023/03/16 06:55:41;;;;;;;;;;;;;;;3.85;100.00;101507.13;5027452;28;19928;-77
2023/03/16 06:58:06;;;;;;;;;;;;;;;3.92;100.00;101517.53;5031891;28;20187;-76
2023/03/16 07:00:32;;;;;;;;;;;;;;;3.83;100.00;101510.78;5022574;28;19920;-78
2023/03/16 07:02:58;;;;;;;;;;;;;;;3.93;100.00;101517.47;5043643;28;19917;-76
2023/03/16 07:05:23;;;;;;;;;;;;;;;4.02;100.00;101519.75;5040813;28;19928;-78
2023/03/16 07:07:48;;;;;;;;;;;;;;;4.11;100.00;101510.56;5041622;28;20374;-77
2023/03/16 07:10:14;;;;;;;;;;;;;;;4.19;100.00;101513.78;5031613;28;20402;-77
2023/03/16 07:12:41;;;;;;;;;;;;;;;4.06;100.00;101515.22;5022208;28;19924;-77
2023/03/16 07:15:06;;;;;;;;;;;;;;;4.09;100.00;101507.13;5026255;28;19924;-78
2023/03/16 07:17:31;;;;;;;;;;;;;;;4.08;100.00;101502.72;5024225;28;19963;-77
2023/03/16 07:19:56;;;;;;;;;;;;;;;4.18;100.00;101490.78;5012019;28;20427;-78
2023/03/16 07:22:22;;;;;;;;;;;;;;;4.12;100.00;101503.47;5039543;28;20489;-78
2023/03/16 07:24:50;;;;;;;;;;;;;;;4.30;100.00;101491.22;5042912;28;19920;-77
2023/03/16 07:27:16;;;;;;;;;;;;;;;4.28;100.00;101493.91;5010642;28;20007;-77
2023/03/16 07:29:41;;;;;;;;;;;;;;;4.17;100.00;101496.16;5006573;28;19920;-77
2023/03/16 07:32:06;;;;;;;;;;;;;;;4.49;100.00;101497.50;5004041;28;20155;-77
2023/03/16 07:34:31;;;;;;;;;;;;;;;4.29;100.00;101495.66;5034609;28;19966;-77
2023/03/16 07:36:57;;;;;;;;;;;;;;;4.50;100.00;101495.72;5018651;28;20293;-77
2023/03/16 07:39:22;;;;;;;;;;;;;;;4.40;100.00;101503.19;5021068;28;19921;-77
2023/03/16 07:41:47;;;;;;;;;;;;;;;4.52;100.00;101498.31;5032508;28;19961;-77
2023/03/16 07:44:13;;;;;;;;;;;;;;;4.52;100.00;101506.28;5041475;28;20398;-77
2023/03/16 07:46:38;;;;;;;;;;;;;;;4.65;100.00;101495.06;5035620;28;19963;-80
2023/03/16 07:49:03;;;;;;;;;;;;;;;4.46;100.00;101502.09;5007437;28;19951;-77
2023/03/16 07:51:28;;;;;;;;;;;;;;;4.56;100.00;101507.88;5028333;28;20432;-76
2023/03/16 07:53:54;;;;;;;;;;;;;;;4.63;100.00;101504.06;5031541;28;19975;-78
2023/03/16 07:56:20;;;;;;;;;;;;;;;4.77;100.00;101509.63;5023714;28;20386;-80
2023/03/16 07:58:45;;;;;;;;;;;;;;;4.59;100.00;101510.44;5004860;28;19921;-77
2023/03/16 08:01:10;;;;;;;;;;;;;;;4.65;100.00;101495.06;5039582;28;19991;-79
2023/03/16 08:03:36;;;;;;;;;;;;;;;4.70;100.00;101484.22;5027379;28;20018;-78
2023/03/16 08:06:01;;;;;;;;;;;;;;;4.74;100.00;101471.66;5018335;28;20366;-81
2023/03/16 08:08:26;;;;;;;;;;;;;;;4.74;100.00;101488.47;5022227;28;19948;-76
2023/03/16 08:10:51;;;;;;;;;;;;;;;4.63;100.00;101480.97;5040797;28;19920;-78
2023/03/16 08:13:17;;;;;;;;;;;;;;;4.61;100.00;101485.47;5023450;28;20362;-78
2023/03/16 08:15:44;;;;;;;;;;;;;;;4.57;100.00;101488.34;5008798;28;19925;-77
2023/03/16 08:18:11;;;;;;;;;;;;;;;4.63;100.00;101488.94;5020986;28;20229;-76
2023/03/16 08:20:36;;;;;;;;;;;;;;;4.89;100.00;101480.78;5024188;28;19927;-79
2023/03/16 08:23:01;;;;;;;;;;;;;;;4.89;100.00;101481.63;5007594;28;19932;-77
2023/03/16 08:25:27;;;;;;;;;;;;;;;4.89;100.00;101480.78;5045850;28;20746;-78
2023/03/16 08:27:52;;;;;;;;;;;;;;;5.05;100.00;101479.16;5025158;28;19974;-77
2023/03/16 08:30:17;;;;;;;;;;;;;;;4.99;100.00;101479.44;5027743;28;19943;-78
2023/03/16 08:32:43;;;;;;;;;;;;;;;5.06;100.00;101474.69;5004872;28;19936;-77
2023/03/16 08:35:09;;;;;;;;;;;;;;;5.15;100.00;101473.44;5038310;28;19923;-79
2023/03/16 08:37:35;;;;;;;;;;;;;;;5.17;100.00;101466.22;5030348;28;20214;-77
2023/03/16 08:40:00;;;;;;;;;;;;;;;5.27;100.00;101477.34;5038150;28;20445;-78
2023/03/16 08:42:27;;;;;;;;;;;;;;;5.39;100.00;101467.00;5026452;28;19920;-79
2023/03/16 08:44:54;;;;;;;;;;;;;;;5.58;100.00;101462.59;5017615;28;20341;-77
2023/03/16 08:47:20;;;;;;;;;;;;;;;5.52;100.00;101474.41;5041631;28;19921;-77
2023/03/16 08:49:45;;;;;;;;;;;;;;;5.45;100.00;101468.50;5025989;28;20287;-77
2023/03/16 08:52:11;;;;;;;;;;;;;;;5.53;100.00;101450.38;5045488;28;19971;-80
2023/03/16 08:54:37;;;;;;;;;;;;;;;5.58;100.00;101467.91;5048117;28;19917;-76
2023/03/16 08:57:03;;;;;;;;;;;;;;;5.62;100.00;101481.03;5011036;28;20321;-77
2023/03/16 08:59:28;;;;;;;;;;;;;;;5.79;100.00;101479.38;5042399;28;19932;-76
2023/03/16 09:01:53;;;;;;;;;;;;;;;5.99;100.00;101476.59;5042990;28;20243;-78
2023/03/16 09:04:20;;;;;;;;;;;;;;;6.05;100.00;101466.63;5040350;28;20318;-77
2023/03/16 09:06:46;;;;;;;;;;;;;;;6.21;100.00;101462.28;5033226;28;19943;-79
2023/03/16 09:09:11;;;;;;;;;;;;;;;6.10;100.00;101444.13;5033909;28;19972;-79
2023/03/16 09:11:37;;;;;;;;;;;;;;;6.24;100.00;101464.78;5041841;28;20387;-77
2023/03/16 09:14:02;;;;;;;;;;;;;;;6.25;100.00;101453.16;5044206;28;20970;-79
2023/03/16 09:16:29;;;;;;;;;;;;;;;6.45;100.00;101438.00;5022004;28;19924;-80
2023/03/16 09:18:54;;;;;;;;;;;;;;;6.29;100.00;101462.75;5011981;28;19931;-76
2023/03/16 09:21:20;;;;;;;;;;;;;;;6.21;100.00;101456.94;5044078;28;19921;-78
2023/03/16 09:23:45;;;;;;;;;;;;;;;6.25;100.00;101457.66;5024119;28;19956;-77
2023/03/16 09:26:11;;;;;;;;;;;;;;;5.99;100.00;101459.78;5046080;28;19917;-79
2023/03/16 09:28:37;;;;;;;;;;;;;;;6.23;100.00;101451.53;5041795;28;19929;-77
2023/03/16 09:31:03;;;;;;;;;;;;;;;6.10;100.00;101448.59;5032478;28;19925;-76
2023/03/16 09:33:29;;;;;;;;;;;;;;;6.57;100.00;101460.50;5021224;28;19921;-77
2023/03/16 09:35:56;;;;;;;;;;;;;;;6.55;100.00;101447.22;5022836;28;19929;-77
2023/03/16 09:38:21;;;;;;;;;;;;;;;6.33;100.00;101449.25;5006823;28;19924;-79
2023/03/16 09:40:47;;;;;;;;;;;;;;;6.47;100.00;101445.91;5040341;28;19927;-76
2023/03/16 09:43:19;;;;;;;;;;;;;;;6.40;100.00;101432.88;5039188;28;19928;-78
2023/03/16 09:45:48;;;;;;;;;;;;;;;6.69;100.00;101449.19;5036833;28;19975;-79
2023/03/16 09:48:13;;;;;;;;;;;;;;;6.78;100.00;101452.31;5011595;28;19924;-76
2023/03/16 09:50:39;;;;;;;;;;;;;;;7.09;100.00;101448.03;5025298;28;19925;-76
2023/03/16 09:53:14;;;;;;;;;;;;;;;7.09;100.00;101430.19;5028476;28;19927;-80
2023/03/16 09:55:39;;;;;;;;;;;;;;;7.24;100.00;101444.53;5022461;28;19923;-79
2023/03/16 09:58:06;;;;;;;;;;;;;;;7.36;100.00;101429.66;5026663;28;19925;-77
2023/03/16 10:00:45;;;;;;;;;;;;;;;7.32;100.00;101447.66;5023056;28;19983;-77
2023/03/16 10:03:21;;;;;;;;;;;;;;;7.52;100.00;101442.19;5033532;28;19944;-78
2023/03/16 10:05:47;;;;;;;;;;;;;;;7.77;100.00;101431.84;5025734;28;19921;-77
2023/03/16 10:08:23;;;;;;;;;;;;;;;7.83;100.00;101429.75;5024922;28;19943;-77
2023/03/16 10:10:52;;;;;;;;;;;;;;;7.93;100.00;101418.47;5013832;28;19921;-80
2023/03/16 10:13:20;;;;;;;;;;;;;;;7.91;100.00;101415.03;5038005;28;20525;-77
2023/03/16 10:15:45;;;;;;;;;;;;;;;8.02;100.00;101418.88;5042720;28;20027;-78
2023/03/16 10:18:18;;;;;;;;;;;;;;;7.92;97.63;101419.41;5040477;28;19924;-77
2023/03/16 10:20:45;;;;;;;;;;;;;;;8.39;100.00;101409.53;5041602;28;20458;-81
2023/03/16 10:23:19;;;;;;;;;;;;;;;8.55;96.23;101406.84;5041234;28;19928;-77
2023/03/16 10:25:44;;;;;;;;;;;;;;;8.65;95.11;101414.31;5024578;28;19971;-76
2023/03/16 10:28:12;;;;;;;;;;;;;;;8.93;95.10;101399.25;5038728;28;20294;-79
2023/03/16 10:30:39;;;;;;;;;;;;;;;9.10;93.84;101406.25;5037700;28;19920;-79
2023/03/16 10:33:12;;;;;;;;;;;;;;;9.28;87.10;101391.66;5035391;28;19921;-78
2023/03/16 10:35:44;;;;;;;;;;;;;;;9.49;89.32;101404.66;5026352;28;20236;-80
2023/03/16 10:38:25;;;;;;;;;;;;;;;9.72;88.57;101400.50;5036974;28;19925;-79
2023/03/16 10:40:51;;;;;;;;;;;;;;;9.96;85.14;101381.06;5034741;28;20246;-80
2023/03/16 10:43:16;;;;;;;;;;;;;;;10.04;83.94;101388.59;5022428;28;19928;-82
2023/03/16 10:45:42;;;;;;;;;;;;;;;9.92;78.84;101395.63;5026085;28;19921;-78
2023/03/16 10:48:08;;;;;;;;;;;;;;;10.43;81.64;101386.91;5037851;28;19920;-78
2023/03/16 10:50:33;;;;;;;;;;;;;;;10.95;82.15;101401.19;5040359;28;20199;-79
2023/03/16 10:52:58;;;;;;;;;;;;;;;10.93;78.13;101381.63;5044215;28;19924;-78
2023/03/16 10:55:28;;;;;;;;;;;;;;;10.74;78.71;101379.38;5022614;28;19929;-79
2023/03/16 10:57:54;;;;;;;;;;;;;;;10.83;78.06;101387.75;5021960;28;19925;-79
2023/03/16 11:00:21;;;;;;;;;;;;;;;10.89;76.47;101379.28;5038348;28;19921;-77
2023/03/16 11:02:48;;;;;;;;;;;;;;;10.71;74.09;101384.97;5013320;28;20039;-80
2023/03/16 11:05:16;;;;;;;;;;;;;;;10.75;75.60;101388.31;5042800;28;19955;-82
2023/03/16 11:07:52;;;;;;;;;;;;;;;10.90;73.16;101386.38;5036155;28;19917;-79
2023/03/16 11:10:26;;;;;;;;;;;;;;;10.95;76.49;101355.50;5025319;28;20278;-80
2023/03/16 11:12:52;;;;;;;;;;;;;;;11.13;71.81;101332.81;5040730;28;20374;-80
2023/03/16 11:15:19;;;;;;;;;;;;;;;10.99;74.93;101377.63;5044248;28;19917;-81
2023/03/16 11:17:44;;;;;;;;;;;;;;;10.78;73.13;101366.59;5028613;28;19925;-82
2023/03/16 11:20:17;;;;;;;;;;;;;;;10.38;73.79;101362.16;5020621;28;20417;-78
2023/03/16 11:22:44;;;;;;;;;;;;;;;10.35;76.68;101343.56;5014476;28;20134;-79
2023/03/16 11:25:14;;;;;;;;;;;;;;;10.43;74.70;101341.25;5037092;28;19920;-78
2023/03/16 11:27:58;;;;;;;;;;;;;;;10.25;77.22;101329.94;5025445;28;19928;-80
2023/03/16 11:30:28;;;;;;;;;;;;;;;10.46;76.98;101327.59;5038634;28;20309;-79
2023/03/16 11:32:53;;;;;;;;;;;;;;;10.49;73.84;101323.84;5021138;28;19924;-79
2023/03/16 11:35:20;;;;;;;;;;;;;;;10.36;77.05;101316.59;5020766;28;20243;-78
2023/03/16 11:37:45;;;;;;;;;;;;;;;10.63;76.37;101336.31;5034672;28;20387;-78
2023/03/16 11:40:14;;;;;;;;;;;;;;;10.59;75.14;101316.00;5023812;28;19916;-80
2023/03/16 11:42:49;;;;;;;;;;;;;;;10.63;74.33;101321.03;5038116;28;19920;-82
2023/03/16 11:45:19;;;;;;;;;;;;;;;10.26;74.35;101328.97;5041938;28;19921;-80
2023/03/16 11:47:44;;;;;;;;;;;;;;;10.38;77.32;101303.09;5007780;28;19920;-77
2023/03/16 11:50:14;;;;;;;;;;;;;;;10.39;80.58;101315.59;5035971;28;19925;-78
2023/03/16 11:52:39;;;;;;;;;;;;;;;10.30;75.66;101314.38;5041307;28;20242;-78
2023/03/16 11:55:20;;;;;;;;;;;;;;;10.71;76.46;101300.84;5036726;28;20430;-77
2023/03/16 11:57:51;;;;;;;;;;;;;;;10.67;78.26;101294.84;5031111;28;20039;-78
2023/03/16 12:00:17;;;;;;;;;;;;;;;10.95;78.00;101301.78;5034186;28;20284;-78
2023/03/16 12:02:57;;;;;;;;;;;;;;;10.82;75.41;101298.28;5026797;28;19927;-78
2023/03/16 12:05:41;;;;;;;;;;;;;;;10.95;69.93;101301.78;5023530;28;19921;-77
2023/03/16 12:08:19;;;;;;;;;;;;;;;10.84;72.84;101290.97;5041147;28;19921;-82
2023/03/16 12:10:48;;;;;;;;;;;;;;;11.15;72.98;101304.00;5013262;28;20043;-79
2023/03/16 12:13:31;;;;;;;;;;;;;;;11.15;76.14;101291.41;5039361;28;20378;-77
2023/03/16 12:15:58;;;;;;;;;;;;;;;11.56;72.76;101281.25;5027657;28;20372;-78
2023/03/16 12:18:42;;;;;;;;;;;;;;;11.39;73.06;101272.63;5023355;28;19963;-78
2023/03/16 12:21:14;;;;;;;;;;;;;;;11.62;74.14;101270.03;5034680;28;20372;-78
2023/03/16 12:23:51;;;;;;;;;;;;;;;11.38;75.37;101259.31;5028493;28;19920;-80
2023/03/16 12:26:16;;;;;;;;;;;;;;;11.90;67.09;101272.47;5013748;28;21431;-76
2023/03/16 12:28:42;;;;;;;;;;;;;;;12.10;66.44;101260.16;5035518;28;20232;-78
2023/03/16 12:31:09;;;;;;;;;;;;;;;12.52;63.86;101252.41;5035028;28;19956;-79
2023/03/16 12:33:39;;;;;;;;;;;;;;;13.27;65.72;101255.34;5034910;28;20247;-78
2023/03/16 12:36:22;;;;;;;;;;;;;;;13.73;61.87;101253.38;5024804;28;19925;-77